sensor_id;sensor_type;location;lat;lon;timestamp;P1;durP1;ratioP1;P2;durP2;ratioP2
75191;SDS011;63771;52.580;9.734;2023-04-06T00:01:06;8.52;;;7.75;;
75191;SDS011;63771;52.580;9.734;2023-04-06T00:03:32;8.80;;;8.02;;
75191;SDS011;63771;52.580;9.734;2023-04-06T00:05:57;8.63;;;7.93;;
75191;SDS011;63771;52.580;9.734;2023-04-06T00:08:23;7.53;;;6.83;;
75191;SDS011;63771;52.580;9.734;2023-04-06T00:10:48;10.65;;;8.25;;
75191;SDS011;63771;52.580;9.734;2023-04-06T00:13:14;11.18;;;7.72;;
75191;SDS011;63771;52.580;9.734;2023-04-06T00:15:39;8.97;;;8.07;;
75191;SDS011;63771;52.580;9.734;2023-04-06T00:18:05;9.70;;;8.30;;
75191;SDS011;63771;52.580;9.734;2023-04-06T00:20:30;9.82;;;8.88;;
75191;SDS011;63771;52.580;9.734;2023-04-06T00:22:56;8.68;;;7.88;;
75191;SDS011;63771;52.580;9.734;2023-04-06T00:25:21;8.93;;;7.40;;
75191;SDS011;63771;52.580;9.734;2023-04-06T00:27:47;9.48;;;8.57;;
75191;SDS011;63771;52.580;9.734;2023-04-06T00:30:12;9.00;;;7.93;;
75191;SDS011;63771;52.580;9.734;2023-04-06T00:32:38;12.43;;;7.88;;
75191;SDS011;63771;52.580;9.734;2023-04-06T00:35:03;8.57;;;7.77;;
75191;SDS011;63771;52.580;9.734;2023-04-06T00:37:29;8.82;;;7.88;;
75191;SDS011;63771;52.580;9.734;2023-04-06T00:39:54;9.30;;;8.38;;
75191;SDS011;63771;52.580;9.734;2023-04-06T00:42:20;9.30;;;8.30;;
75191;SDS011;63771;52.580;9.734;2023-04-06T00:44:53;8.88;;;8.02;;
75191;SDS011;63771;52.580;9.734;2023-04-06T00:47:20;8.65;;;7.85;;
75191;SDS011;63771;52.580;9.734;2023-04-06T00:49:47;9.55;;;8.57;;
75191;SDS011;63771;52.580;9.734;2023-04-06T00:52:12;9.77;;;8.85;;
75191;SDS011;63771;52.580;9.734;2023-04-06T00:54:38;9.02;;;8.07;;
75191;SDS011;63771;52.580;9.734;2023-04-06T00:57:03;8.93;;;8.10;;
75191;SDS011;63771;52.580;9.734;2023-04-06T00:59:29;9.75;;;8.85;;
75191;SDS011;63771;52.580;9.734;2023-04-06T01:01:55;9.27;;;7.78;;
75191;SDS011;63771;52.580;9.734;2023-04-06T01:04:20;9.45;;;8.50;;
75191;SDS011;63771;52.580;9.734;2023-04-06T01:06:48;9.13;;;8.38;;
75191;SDS011;63771;52.580;9.734;2023-04-06T01:09:14;10.90;;;9.90;;
75191;SDS011;63771;52.580;9.734;2023-04-06T01:11:39;10.13;;;9.10;;
75191;SDS011;63771;52.580;9.734;2023-04-06T01:14:04;12.83;;;9.63;;
75191;SDS011;63771;52.580;9.734;2023-04-06T01:16:30;9.25;;;8.40;;
75191;SDS011;63771;52.580;9.734;2023-04-06T01:18:56;9.20;;;8.40;;
75191;SDS011;63771;52.580;9.734;2023-04-06T01:21:21;9.75;;;8.85;;
75191;SDS011;63771;52.580;9.734;2023-04-06T01:23:47;9.70;;;8.88;;
75191;SDS011;63771;52.580;9.734;2023-04-06T01:26:12;10.23;;;8.93;;
75191;SDS011;63771;52.580;9.734;2023-04-06T01:28:38;8.98;;;8.07;;
75191;SDS011;63771;52.580;9.734;2023-04-06T01:31:04;10.52;;;9.13;;
75191;SDS011;63771;52.580;9.734;2023-04-06T01:33:34;9.75;;;8.80;;
75191;SDS011;63771;52.580;9.734;2023-04-06T01:35:59;10.30;;;8.98;;
75191;SDS011;63771;52.580;9.734;2023-04-06T01:38:25;9.13;;;8.30;;
75191;SDS011;63771;52.580;9.734;2023-04-06T01:40:51;9.23;;;8.27;;
75191;SDS011;63771;52.580;9.734;2023-04-06T01:43:17;8.70;;;7.80;;
75191;SDS011;63771;52.580;9.734;2023-04-06T01:45:42;9.23;;;8.33;;
75191;SDS011;63771;52.580;9.734;2023-04-06T01:48:08;9.27;;;8.20;;
75191;SDS011;63771;52.580;9.734;2023-04-06T01:50:33;11.30;;;8.57;;
75191;SDS011;63771;52.580;9.734;2023-04-06T01:52:58;10.90;;;8.60;;
75191;SDS011;63771;52.580;9.734;2023-04-06T01:55:24;9.80;;;8.80;;
75191;SDS011;63771;52.580;9.734;2023-04-06T01:57:49;10.80;;;9.43;;
75191;SDS011;63771;52.580;9.734;2023-04-06T02:00:15;10.13;;;8.63;;
75191;SDS011;63771;52.580;9.734;2023-04-06T02:02:41;9.75;;;7.65;;
75191;SDS011;63771;52.580;9.734;2023-04-06T02:05:06;10.02;;;9.02;;
75191;SDS011;63771;52.580;9.734;2023-04-06T02:07:33;12.02;;;8.50;;
75191;SDS011;63771;52.580;9.734;2023-04-06T02:09:58;11.90;;;9.50;;
75191;SDS011;63771;52.580;9.734;2023-04-06T02:12:23;15.15;;;10.40;;
75191;SDS011;63771;52.580;9.734;2023-04-06T02:14:49;12.73;;;9.70;;
75191;SDS011;63771;52.580;9.734;2023-04-06T02:17:14;8.93;;;8.13;;
75191;SDS011;63771;52.580;9.734;2023-04-06T02:19:39;13.10;;;10.15;;
75191;SDS011;63771;52.580;9.734;2023-04-06T02:22:05;10.27;;;8.98;;
75191;SDS011;63771;52.580;9.734;2023-04-06T02:24:31;9.15;;;8.00;;
75191;SDS011;63771;52.580;9.734;2023-04-06T02:26:56;9.75;;;8.90;;
75191;SDS011;63771;52.580;9.734;2023-04-06T02:29:22;10.13;;;9.10;;
75191;SDS011;63771;52.580;9.734;2023-04-06T02:31:47;10.43;;;9.43;;
75191;SDS011;63771;52.580;9.734;2023-04-06T02:34:12;8.63;;;7.70;;
75191;SDS011;63771;52.580;9.734;2023-04-06T02:36:42;10.95;;;9.05;;
75191;SDS011;63771;52.580;9.734;2023-04-06T02:39:11;9.43;;;8.05;;
75191;SDS011;63771;52.580;9.734;2023-04-06T02:41:38;9.43;;;8.27;;
75191;SDS011;63771;52.580;9.734;2023-04-06T02:44:04;8.45;;;7.38;;
75191;SDS011;63771;52.580;9.734;2023-04-06T02:46:31;8.55;;;7.68;;
75191;SDS011;63771;52.580;9.734;2023-04-06T02:48:56;9.47;;;8.50;;
75191;SDS011;63771;52.580;9.734;2023-04-06T02:51:21;10.55;;;9.45;;
75191;SDS011;63771;52.580;9.734;2023-04-06T02:53:47;9.20;;;8.20;;
75191;SDS011;63771;52.580;9.734;2023-04-06T02:56:12;9.97;;;7.80;;
75191;SDS011;63771;52.580;9.734;2023-04-06T02:58:37;8.77;;;7.93;;
75191;SDS011;63771;52.580;9.734;2023-04-06T03:01:03;10.23;;;8.50;;
75191;SDS011;63771;52.580;9.734;2023-04-06T03:03:28;9.30;;;8.35;;
75191;SDS011;63771;52.580;9.734;2023-04-06T03:05:55;10.18;;;7.65;;
75191;SDS011;63771;52.580;9.734;2023-04-06T03:08:23;10.13;;;7.70;;
75191;SDS011;63771;52.580;9.734;2023-04-06T03:10:48;12.60;;;8.50;;
75191;SDS011;63771;52.580;9.734;2023-04-06T03:13:14;10.70;;;8.10;;
75191;SDS011;63771;52.580;9.734;2023-04-06T03:15:39;9.03;;;8.20;;
75191;SDS011;63771;52.580;9.734;2023-04-06T03:18:05;8.70;;;7.97;;
75191;SDS011;63771;52.580;9.734;2023-04-06T03:20:30;8.98;;;8.02;;
75191;SDS011;63771;52.580;9.734;2023-04-06T03:22:55;9.13;;;8.27;;
75191;SDS011;63771;52.580;9.734;2023-04-06T03:25:21;10.83;;;8.87;;
75191;SDS011;63771;52.580;9.734;2023-04-06T03:27:46;10.35;;;9.13;;
75191;SDS011;63771;52.580;9.734;2023-04-06T03:30:12;10.23;;;9.10;;
75191;SDS011;63771;52.580;9.734;2023-04-06T03:32:37;10.23;;;9.25;;
75191;SDS011;63771;52.580;9.734;2023-04-06T03:35:03;9.63;;;8.03;;
75191;SDS011;63771;52.580;9.734;2023-04-06T03:37:28;10.57;;;8.73;;
75191;SDS011;63771;52.580;9.734;2023-04-06T03:39:53;12.27;;;8.70;;
75191;SDS011;63771;52.580;9.734;2023-04-06T03:42:19;8.93;;;7.93;;
75191;SDS011;63771;52.580;9.734;2023-04-06T03:44:44;8.93;;;6.97;;
75191;SDS011;63771;52.580;9.734;2023-04-06T03:47:10;9.23;;;8.30;;
75191;SDS011;63771;52.580;9.734;2023-04-06T03:49:35;11.40;;;8.70;;
75191;SDS011;63771;52.580;9.734;2023-04-06T03:52:01;10.85;;;8.32;;
75191;SDS011;63771;52.580;9.734;2023-04-06T03:54:26;12.43;;;7.90;;
75191;SDS011;63771;52.580;9.734;2023-04-06T03:56:51;10.93;;;8.00;;
75191;SDS011;63771;52.580;9.734;2023-04-06T03:59:17;9.87;;;8.97;;
75191;SDS011;63771;52.580;9.734;2023-04-06T04:01:42;9.32;;;8.30;;
75191;SDS011;63771;52.580;9.734;2023-04-06T04:04:07;11.00;;;9.90;;
75191;SDS011;63771;52.580;9.734;2023-04-06T04:06:33;11.97;;;8.60;;
75191;SDS011;63771;52.580;9.734;2023-04-06T04:08:58;12.80;;;9.23;;
75191;SDS011;63771;52.580;9.734;2023-04-06T04:11:23;10.60;;;9.50;;
75191;SDS011;63771;52.580;9.734;2023-04-06T04:13:49;11.65;;;8.10;;
75191;SDS011;63771;52.580;9.734;2023-04-06T04:16:14;10.30;;;9.25;;
75191;SDS011;63771;52.580;9.734;2023-04-06T04:18:40;11.40;;;8.67;;
75191;SDS011;63771;52.580;9.734;2023-04-06T04:21:05;12.73;;;9.30;;
75191;SDS011;63771;52.580;9.734;2023-04-06T04:23:30;12.65;;;11.38;;
75191;SDS011;63771;52.580;9.734;2023-04-06T04:25:56;10.70;;;9.70;;
75191;SDS011;63771;52.580;9.734;2023-04-06T04:28:21;13.68;;;8.40;;
75191;SDS011;63771;52.580;9.734;2023-04-06T04:30:47;9.82;;;8.43;;
75191;SDS011;63771;52.580;9.734;2023-04-06T04:33:12;9.70;;;8.73;;
75191;SDS011;63771;52.580;9.734;2023-04-06T04:35:38;11.60;;;10.23;;
75191;SDS011;63771;52.580;9.734;2023-04-06T04:38:03;9.60;;;8.60;;
75191;SDS011;63771;52.580;9.734;2023-04-06T04:40:28;9.68;;;8.63;;
75191;SDS011;63771;52.580;9.734;2023-04-06T04:42:54;10.50;;;8.57;;
75191;SDS011;63771;52.580;9.734;2023-04-06T04:45:19;10.30;;;8.63;;
75191;SDS011;63771;52.580;9.734;2023-04-06T04:47:45;9.97;;;8.40;;
75191;SDS011;63771;52.580;9.734;2023-04-06T04:50:10;11.43;;;8.90;;
75191;SDS011;63771;52.580;9.734;2023-04-06T04:52:36;12.10;;;10.88;;
75191;SDS011;63771;52.580;9.734;2023-04-06T04:55:02;10.48;;;9.38;;
75191;SDS011;63771;52.580;9.734;2023-04-06T04:57:28;10.73;;;8.80;;
75191;SDS011;63771;52.580;9.734;2023-04-06T04:59:53;10.10;;;9.10;;
75191;SDS011;63771;52.580;9.734;2023-04-06T05:02:19;10.98;;;9.55;;
75191;SDS011;63771;52.580;9.734;2023-04-06T05:04:44;9.00;;;8.13;;
75191;SDS011;63771;52.580;9.734;2023-04-06T05:07:09;11.40;;;8.27;;
75191;SDS011;63771;52.580;9.734;2023-04-06T05:09:35;9.00;;;8.18;;
75191;SDS011;63771;52.580;9.734;2023-04-06T05:12:00;9.68;;;8.00;;
75191;SDS011;63771;52.580;9.734;2023-04-06T05:14:26;10.18;;;9.15;;
75191;SDS011;63771;52.580;9.734;2023-04-06T05:16:52;12.10;;;8.82;;
75191;SDS011;63771;52.580;9.734;2023-04-06T05:19:18;11.45;;;10.35;;
75191;SDS011;63771;52.580;9.734;2023-04-06T05:21:44;10.25;;;8.90;;
75191;SDS011;63771;52.580;9.734;2023-04-06T05:24:09;10.30;;;8.38;;
75191;SDS011;63771;52.580;9.734;2023-04-06T05:26:34;9.43;;;8.50;;
75191;SDS011;63771;52.580;9.734;2023-04-06T05:29:00;10.32;;;9.02;;
75191;SDS011;63771;52.580;9.734;2023-04-06T05:31:26;10.95;;;9.02;;
75191;SDS011;63771;52.580;9.734;2023-04-06T05:33:51;12.80;;;9.50;;
75191;SDS011;63771;52.580;9.734;2023-04-06T05:36:17;9.93;;;8.93;;
75191;SDS011;63771;52.580;9.734;2023-04-06T05:38:42;9.95;;;8.50;;
75191;SDS011;63771;52.580;9.734;2023-04-06T05:41:07;8.90;;;7.97;;
75191;SDS011;63771;52.580;9.734;2023-04-06T05:43:33;9.60;;;7.85;;
75191;SDS011;63771;52.580;9.734;2023-04-06T05:45:58;10.83;;;8.77;;
75191;SDS011;63771;52.580;9.734;2023-04-06T05:48:23;9.57;;;8.07;;
75191;SDS011;63771;52.580;9.734;2023-04-06T05:50:49;10.32;;;8.45;;
75191;SDS011;63771;52.580;9.734;2023-04-06T05:53:15;14.73;;;10.52;;
75191;SDS011;63771;52.580;9.734;2023-04-06T05:55:41;19.63;;;11.45;;
75191;SDS011;63771;52.580;9.734;2023-04-06T05:58:06;15.80;;;11.10;;
75191;SDS011;63771;52.580;9.734;2023-04-06T06:00:31;19.87;;;10.93;;
75191;SDS011;63771;52.580;9.734;2023-04-06T06:02:57;11.35;;;9.10;;
75191;SDS011;63771;52.580;9.734;2023-04-06T06:05:23;12.40;;;11.10;;
75191;SDS011;63771;52.580;9.734;2023-04-06T06:07:48;10.80;;;8.80;;
75191;SDS011;63771;52.580;9.734;2023-04-06T06:10:13;10.50;;;9.37;;
75191;SDS011;63771;52.580;9.734;2023-04-06T06:12:39;11.65;;;10.45;;
75191;SDS011;63771;52.580;9.734;2023-04-06T06:15:04;12.98;;;8.75;;
75191;SDS011;63771;52.580;9.734;2023-04-06T06:17:30;13.70;;;9.00;;
75191;SDS011;63771;52.580;9.734;2023-04-06T06:19:56;12.40;;;9.50;;
75191;SDS011;63771;52.580;9.734;2023-04-06T06:22:21;12.25;;;10.10;;
75191;SDS011;63771;52.580;9.734;2023-04-06T06:24:46;9.55;;;8.23;;
75191;SDS011;63771;52.580;9.734;2023-04-06T06:27:12;10.30;;;8.25;;
75191;SDS011;63771;52.580;9.734;2023-04-06T06:29:37;10.30;;;8.20;;
75191;SDS011;63771;52.580;9.734;2023-04-06T06:32:03;8.63;;;7.57;;
75191;SDS011;63771;52.580;9.734;2023-04-06T06:34:28;7.97;;;6.85;;
75191;SDS011;63771;52.580;9.734;2023-04-06T06:36:53;9.30;;;7.40;;
75191;SDS011;63771;52.580;9.734;2023-04-06T06:39:20;9.30;;;7.60;;
75191;SDS011;63771;52.580;9.734;2023-04-06T06:41:46;12.23;;;9.05;;
75191;SDS011;63771;52.580;9.734;2023-04-06T06:44:11;9.77;;;7.53;;
75191;SDS011;63771;52.580;9.734;2023-04-06T06:46:36;12.15;;;9.07;;
75191;SDS011;63771;52.580;9.734;2023-04-06T06:49:02;9.43;;;7.33;;
75191;SDS011;63771;52.580;9.734;2023-04-06T06:51:28;10.23;;;8.65;;
75191;SDS011;63771;52.580;9.734;2023-04-06T06:53:53;10.50;;;8.27;;
75191;SDS011;63771;52.580;9.734;2023-04-06T06:56:18;9.67;;;7.77;;
75191;SDS011;63771;52.580;9.734;2023-04-06T06:58:44;11.63;;;8.27;;
75191;SDS011;63771;52.580;9.734;2023-04-06T07:01:09;10.90;;;7.40;;
75191;SDS011;63771;52.580;9.734;2023-04-06T07:03:35;9.90;;;7.75;;
75191;SDS011;63771;52.580;9.734;2023-04-06T07:06:00;11.52;;;8.05;;
75191;SDS011;63771;52.580;9.734;2023-04-06T07:08:26;7.47;;;6.07;;
75191;SDS011;63771;52.580;9.734;2023-04-06T07:10:51;9.03;;;6.67;;
75191;SDS011;63771;52.580;9.734;2023-04-06T07:13:18;8.00;;;5.88;;
75191;SDS011;63771;52.580;9.734;2023-04-06T07:15:47;6.50;;;5.80;;
75191;SDS011;63771;52.580;9.734;2023-04-06T07:18:13;7.28;;;6.57;;
75191;SDS011;63771;52.580;9.734;2023-04-06T07:20:39;10.50;;;6.55;;
75191;SDS011;63771;52.580;9.734;2023-04-06T07:23:04;7.32;;;6.65;;
75191;SDS011;63771;52.580;9.734;2023-04-06T07:25:30;9.02;;;6.35;;
75191;SDS011;63771;52.580;9.734;2023-04-06T07:27:56;6.85;;;6.10;;
75191;SDS011;63771;52.580;9.734;2023-04-06T07:30:22;6.53;;;5.93;;
75191;SDS011;63771;52.580;9.734;2023-04-06T07:32:47;8.57;;;6.35;;
75191;SDS011;63771;52.580;9.734;2023-04-06T07:35:13;7.85;;;7.05;;
75191;SDS011;63771;52.580;9.734;2023-04-06T07:37:39;7.60;;;5.85;;
75191;SDS011;63771;52.580;9.734;2023-04-06T07:40:05;8.10;;;5.07;;
75191;SDS011;63771;52.580;9.734;2023-04-06T07:42:31;11.48;;;6.28;;
75191;SDS011;63771;52.580;9.734;2023-04-06T07:44:57;8.15;;;6.05;;
75191;SDS011;63771;52.580;9.734;2023-04-06T07:47:23;7.72;;;6.28;;
75191;SDS011;63771;52.580;9.734;2023-04-06T07:49:48;7.87;;;5.80;;
75191;SDS011;63771;52.580;9.734;2023-04-06T07:52:14;6.40;;;5.53;;
75191;SDS011;63771;52.580;9.734;2023-04-06T07:54:40;6.80;;;6.10;;
75191;SDS011;63771;52.580;9.734;2023-04-06T07:57:06;6.45;;;5.80;;
75191;SDS011;63771;52.580;9.734;2023-04-06T07:59:31;6.30;;;5.70;;
75191;SDS011;63771;52.580;9.734;2023-04-06T08:01:56;7.00;;;6.30;;
75191;SDS011;63771;52.580;9.734;2023-04-06T08:04:22;9.07;;;6.20;;
75191;SDS011;63771;52.580;9.734;2023-04-06T08:06:47;9.30;;;7.17;;
75191;SDS011;63771;52.580;9.734;2023-04-06T08:09:12;8.70;;;6.17;;
75191;SDS011;63771;52.580;9.734;2023-04-06T08:11:38;7.78;;;6.28;;
75191;SDS011;63771;52.580;9.734;2023-04-06T08:14:03;11.73;;;7.68;;
75191;SDS011;63771;52.580;9.734;2023-04-06T08:16:29;7.97;;;7.15;;
75191;SDS011;63771;52.580;9.734;2023-04-06T08:18:54;6.97;;;6.32;;
75191;SDS011;63771;52.580;9.734;2023-04-06T08:21:20;8.20;;;7.23;;
75191;SDS011;63771;52.580;9.734;2023-04-06T08:23:45;9.80;;;6.23;;
75191;SDS011;63771;52.580;9.734;2023-04-06T08:26:11;7.32;;;6.35;;
75191;SDS011;63771;52.580;9.734;2023-04-06T08:28:37;5.63;;;5.13;;
75191;SDS011;63771;52.580;9.734;2023-04-06T08:31:03;6.97;;;6.35;;
75191;SDS011;63771;52.580;9.734;2023-04-06T08:33:32;6.20;;;5.60;;
75191;SDS011;63771;52.580;9.734;2023-04-06T08:36:06;8.38;;;6.03;;
75191;SDS011;63771;52.580;9.734;2023-04-06T08:38:33;7.13;;;6.13;;
75191;SDS011;63771;52.580;9.734;2023-04-06T08:40:58;7.60;;;6.87;;
75191;SDS011;63771;52.580;9.734;2023-04-06T08:43:23;8.32;;;5.43;;
75191;SDS011;63771;52.580;9.734;2023-04-06T08:45:50;6.57;;;5.90;;
75191;SDS011;63771;52.580;9.734;2023-04-06T08:48:15;5.10;;;4.63;;
75191;SDS011;63771;52.580;9.734;2023-04-06T08:50:42;6.40;;;4.60;;
75191;SDS011;63771;52.580;9.734;2023-04-06T08:53:08;5.00;;;4.50;;
75191;SDS011;63771;52.580;9.734;2023-04-06T08:55:33;5.17;;;4.57;;
75191;SDS011;63771;52.580;9.734;2023-04-06T08:57:59;5.65;;;5.15;;
75191;SDS011;63771;52.580;9.734;2023-04-06T09:00:25;5.47;;;4.97;;
75191;SDS011;63771;52.580;9.734;2023-04-06T09:02:50;5.05;;;4.60;;
75191;SDS011;63771;52.580;9.734;2023-04-06T09:05:20;6.88;;;5.57;;
75191;SDS011;63771;52.580;9.734;2023-04-06T09:07:46;7.38;;;5.07;;
75191;SDS011;63771;52.580;9.734;2023-04-06T09:10:11;7.23;;;6.53;;
75191;SDS011;63771;52.580;9.734;2023-04-06T09:12:37;5.82;;;5.10;;
75191;SDS011;63771;52.580;9.734;2023-04-06T09:15:02;8.93;;;4.55;;
75191;SDS011;63771;52.580;9.734;2023-04-06T09:17:29;7.75;;;5.63;;
75191;SDS011;63771;52.580;9.734;2023-04-06T09:19:57;5.75;;;5.18;;
75191;SDS011;63771;52.580;9.734;2023-04-06T09:22:23;6.97;;;6.13;;
75191;SDS011;63771;52.580;9.734;2023-04-06T09:24:53;8.05;;;5.63;;
75191;SDS011;63771;52.580;9.734;2023-04-06T09:27:32;6.00;;;5.40;;
75191;SDS011;63771;52.580;9.734;2023-04-06T09:30:02;8.18;;;5.35;;
75191;SDS011;63771;52.580;9.734;2023-04-06T09:32:51;5.75;;;5.20;;
75191;SDS011;63771;52.580;9.734;2023-04-06T09:35:18;6.45;;;5.70;;
75191;SDS011;63771;52.580;9.734;2023-04-06T09:37:50;8.02;;;5.88;;
75191;SDS011;63771;52.580;9.734;2023-04-06T09:40:17;9.88;;;6.18;;
75191;SDS011;63771;52.580;9.734;2023-04-06T09:42:47;6.97;;;5.40;;
75191;SDS011;63771;52.580;9.734;2023-04-06T09:45:13;6.55;;;5.10;;
75191;SDS011;63771;52.580;9.734;2023-04-06T09:47:40;9.10;;;5.45;;
75191;SDS011;63771;52.580;9.734;2023-04-06T09:50:09;7.45;;;6.47;;
75191;SDS011;63771;52.580;9.734;2023-04-06T09:52:48;7.65;;;6.50;;
75191;SDS011;63771;52.580;9.734;2023-04-06T09:55:30;6.35;;;5.57;;
75191;SDS011;63771;52.580;9.734;2023-04-06T09:58:05;7.35;;;5.25;;
75191;SDS011;63771;52.580;9.734;2023-04-06T10:00:43;6.57;;;5.75;;
75191;SDS011;63771;52.580;9.734;2023-04-06T10:06:11;8.10;;;6.43;;
75191;SDS011;63771;52.580;9.734;2023-04-06T10:08:38;6.75;;;6.05;;
75191;SDS011;63771;52.580;9.734;2023-04-06T10:11:11;8.00;;;5.72;;
75191;SDS011;63771;52.580;9.734;2023-04-06T10:13:37;8.93;;;5.85;;
75191;SDS011;63771;52.580;9.734;2023-04-06T10:16:02;7.00;;;5.38;;
75191;SDS011;63771;52.580;9.734;2023-04-06T10:18:29;7.88;;;5.85;;
75191;SDS011;63771;52.580;9.734;2023-04-06T10:21:04;7.35;;;5.80;;
75191;SDS011;63771;52.580;9.734;2023-04-06T10:26:11;9.00;;;6.70;;
75191;SDS011;63771;52.580;9.734;2023-04-06T10:28:40;8.77;;;5.72;;
75191;SDS011;63771;52.580;9.734;2023-04-06T10:31:06;7.00;;;5.53;;
75191;SDS011;63771;52.580;9.734;2023-04-06T10:33:32;16.45;;;6.22;;
75191;SDS011;63771;52.580;9.734;2023-04-06T10:36:09;7.40;;;5.13;;
75191;SDS011;63771;52.580;9.734;2023-04-06T10:38:38;6.75;;;5.93;;
75191;SDS011;63771;52.580;9.734;2023-04-06T10:41:05;7.50;;;6.38;;
75191;SDS011;63771;52.580;9.734;2023-04-06T10:43:35;7.60;;;5.88;;
75191;SDS011;63771;52.580;9.734;2023-04-06T10:46:01;8.25;;;5.63;;
75191;SDS011;63771;52.580;9.734;2023-04-06T10:48:44;7.03;;;5.75;;
75191;SDS011;63771;52.580;9.734;2023-04-06T10:51:14;5.93;;;5.28;;
75191;SDS011;63771;52.580;9.734;2023-04-06T10:53:47;8.25;;;6.35;;
75191;SDS011;63771;52.580;9.734;2023-04-06T10:56:17;10.00;;;7.72;;
75191;SDS011;63771;52.580;9.734;2023-04-06T10:58:47;9.55;;;6.55;;
75191;SDS011;63771;52.580;9.734;2023-04-06T11:01:16;6.40;;;5.47;;
75191;SDS011;63771;52.580;9.734;2023-04-06T11:03:43;11.55;;;7.50;;
75191;SDS011;63771;52.580;9.734;2023-04-06T11:06:09;9.07;;;6.82;;
75191;SDS011;63771;52.580;9.734;2023-04-06T11:08:35;9.93;;;6.93;;
75191;SDS011;63771;52.580;9.734;2023-04-06T11:11:12;9.07;;;7.22;;
75191;SDS011;63771;52.580;9.734;2023-04-06T11:13:42;7.68;;;6.00;;
75191;SDS011;63771;52.580;9.734;2023-04-06T11:16:16;6.53;;;5.93;;
75191;SDS011;63771;52.580;9.734;2023-04-06T11:18:46;7.18;;;6.45;;
75191;SDS011;63771;52.580;9.734;2023-04-06T11:24:17;7.25;;;6.22;;
75191;SDS011;63771;52.580;9.734;2023-04-06T11:26:47;6.75;;;5.82;;
75191;SDS011;63771;52.580;9.734;2023-04-06T11:29:19;6.90;;;5.32;;
75191;SDS011;63771;52.580;9.734;2023-04-06T11:32:07;9.00;;;6.30;;
75191;SDS011;63771;52.580;9.734;2023-04-06T11:34:34;6.05;;;5.47;;
75191;SDS011;63771;52.580;9.734;2023-04-06T11:37:04;6.97;;;5.80;;
75191;SDS011;63771;52.580;9.734;2023-04-06T11:39:37;6.28;;;5.68;;
75191;SDS011;63771;52.580;9.734;2023-04-06T11:42:05;7.85;;;6.00;;
75191;SDS011;63771;52.580;9.734;2023-04-06T11:44:34;6.00;;;5.25;;
75191;SDS011;63771;52.580;9.734;2023-04-06T11:47:04;6.28;;;5.68;;
75191;SDS011;63771;52.580;9.734;2023-04-06T11:49:31;5.90;;;5.30;;
75191;SDS011;63771;52.580;9.734;2023-04-06T11:51:58;7.38;;;5.65;;
75191;SDS011;63771;52.580;9.734;2023-04-06T11:54:35;6.57;;;5.75;;
75191;SDS011;63771;52.580;9.734;2023-04-06T11:57:02;7.03;;;5.25;;
75191;SDS011;63771;52.580;9.734;2023-04-06T11:59:29;7.60;;;5.65;;
75191;SDS011;63771;52.580;9.734;2023-04-06T12:01:57;6.43;;;5.85;;
75191;SDS011;63771;52.580;9.734;2023-04-06T12:04:23;8.68;;;5.55;;
75191;SDS011;63771;52.580;9.734;2023-04-06T12:06:48;7.55;;;4.97;;
75191;SDS011;63771;52.580;9.734;2023-04-06T12:09:15;6.50;;;5.80;;
75191;SDS011;63771;52.580;9.734;2023-04-06T12:11:41;7.47;;;6.75;;
75191;SDS011;63771;52.580;9.734;2023-04-06T12:14:07;6.50;;;5.72;;
75191;SDS011;63771;52.580;9.734;2023-04-06T12:16:32;8.55;;;6.85;;
75191;SDS011;63771;52.580;9.734;2023-04-06T12:18:58;6.15;;;5.60;;
75191;SDS011;63771;52.580;9.734;2023-04-06T12:21:24;7.65;;;6.53;;
75191;SDS011;63771;52.580;9.734;2023-04-06T12:23:51;7.80;;;5.45;;
75191;SDS011;63771;52.580;9.734;2023-04-06T12:26:16;7.73;;;6.47;;
75191;SDS011;63771;52.580;9.734;2023-04-06T12:28:42;11.45;;;5.65;;
75191;SDS011;63771;52.580;9.734;2023-04-06T12:31:13;9.48;;;6.22;;
75191;SDS011;63771;52.580;9.734;2023-04-06T12:33:40;7.00;;;6.03;;
75191;SDS011;63771;52.580;9.734;2023-04-06T12:36:10;6.97;;;5.93;;
75191;SDS011;63771;52.580;9.734;2023-04-06T12:38:37;7.75;;;6.60;;
75191;SDS011;63771;52.580;9.734;2023-04-06T12:41:04;7.78;;;6.97;;
75191;SDS011;63771;52.580;9.734;2023-04-06T12:43:30;5.90;;;5.35;;
75191;SDS011;63771;52.580;9.734;2023-04-06T12:45:55;8.67;;;6.57;;
75191;SDS011;63771;52.580;9.734;2023-04-06T12:48:21;7.35;;;5.43;;
75191;SDS011;63771;52.580;9.734;2023-04-06T12:50:53;8.43;;;5.80;;
75191;SDS011;63771;52.580;9.734;2023-04-06T12:53:19;8.05;;;6.55;;
75191;SDS011;63771;52.580;9.734;2023-04-06T12:55:45;7.07;;;6.25;;
75191;SDS011;63771;52.580;9.734;2023-04-06T12:58:10;8.18;;;5.97;;
75191;SDS011;63771;52.580;9.734;2023-04-06T13:00:36;10.48;;;7.18;;
75191;SDS011;63771;52.580;9.734;2023-04-06T13:03:01;8.52;;;7.32;;
75191;SDS011;63771;52.580;9.734;2023-04-06T13:05:27;8.93;;;6.75;;
75191;SDS011;63771;52.580;9.734;2023-04-06T13:07:52;8.75;;;6.70;;
75191;SDS011;63771;52.580;9.734;2023-04-06T13:10:18;7.43;;;6.65;;
75191;SDS011;63771;52.580;9.734;2023-04-06T13:12:43;10.17;;;7.13;;
75191;SDS011;63771;52.580;9.734;2023-04-06T13:15:08;6.97;;;6.22;;
75191;SDS011;63771;52.580;9.734;2023-04-06T13:17:34;10.88;;;7.18;;
75191;SDS011;63771;52.580;9.734;2023-04-06T13:19:59;11.07;;;7.05;;
75191;SDS011;63771;52.580;9.734;2023-04-06T13:22:25;13.93;;;8.87;;
75191;SDS011;63771;52.580;9.734;2023-04-06T13:24:50;13.63;;;7.30;;
75191;SDS011;63771;52.580;9.734;2023-04-06T13:27:15;16.30;;;8.03;;
75191;SDS011;63771;52.580;9.734;2023-04-06T13:29:41;9.47;;;7.17;;
75191;SDS011;63771;52.580;9.734;2023-04-06T13:32:06;8.47;;;6.63;;
75191;SDS011;63771;52.580;9.734;2023-04-06T13:34:32;9.15;;;7.18;;
75191;SDS011;63771;52.580;9.734;2023-04-06T13:36:57;10.05;;;7.18;;
75191;SDS011;63771;52.580;9.734;2023-04-06T13:39:24;8.07;;;7.22;;
75191;SDS011;63771;52.580;9.734;2023-04-06T13:41:49;8.45;;;6.28;;
75191;SDS011;63771;52.580;9.734;2023-04-06T13:44:15;7.37;;;6.53;;
75191;SDS011;63771;52.580;9.734;2023-04-06T13:46:40;9.03;;;6.60;;
75191;SDS011;63771;52.580;9.734;2023-04-06T13:49:05;6.60;;;6.00;;
75191;SDS011;63771;52.580;9.734;2023-04-06T13:51:31;7.43;;;6.18;;
75191;SDS011;63771;52.580;9.734;2023-04-06T13:53:57;6.60;;;5.72;;
75191;SDS011;63771;52.580;9.734;2023-04-06T13:56:22;7.03;;;6.20;;
75191;SDS011;63771;52.580;9.734;2023-04-06T13:58:47;6.47;;;5.60;;
75191;SDS011;63771;52.580;9.734;2023-04-06T14:01:12;7.60;;;6.20;;
75191;SDS011;63771;52.580;9.734;2023-04-06T14:03:38;8.47;;;7.60;;
75191;SDS011;63771;52.580;9.734;2023-04-06T14:06:10;8.90;;;5.90;;
75191;SDS011;63771;52.580;9.734;2023-04-06T14:08:39;7.88;;;6.18;;
75191;SDS011;63771;52.580;9.734;2023-04-06T14:11:04;8.25;;;6.65;;
75191;SDS011;63771;52.580;9.734;2023-04-06T14:13:33;9.77;;;7.10;;
75191;SDS011;63771;52.580;9.734;2023-04-06T14:15:58;9.63;;;7.05;;
75191;SDS011;63771;52.580;9.734;2023-04-06T14:18:24;8.20;;;7.32;;
75191;SDS011;63771;52.580;9.734;2023-04-06T14:20:55;6.57;;;5.50;;
75191;SDS011;63771;52.580;9.734;2023-04-06T14:23:21;7.70;;;5.60;;
75191;SDS011;63771;52.580;9.734;2023-04-06T14:25:47;6.75;;;5.53;;
75191;SDS011;63771;52.580;9.734;2023-04-06T14:28:12;7.37;;;6.50;;
75191;SDS011;63771;52.580;9.734;2023-04-06T14:30:38;10.00;;;6.20;;
75191;SDS011;63771;52.580;9.734;2023-04-06T14:33:03;9.77;;;7.63;;
75191;SDS011;63771;52.580;9.734;2023-04-06T14:35:28;7.40;;;6.30;;
75191;SDS011;63771;52.580;9.734;2023-04-06T14:37:55;7.90;;;6.32;;
75191;SDS011;63771;52.580;9.734;2023-04-06T14:40:22;6.93;;;6.22;;
75191;SDS011;63771;52.580;9.734;2023-04-06T14:42:48;9.35;;;6.90;;
75191;SDS011;63771;52.580;9.734;2023-04-06T14:45:15;7.47;;;6.05;;
75191;SDS011;63771;52.580;9.734;2023-04-06T14:47:42;6.97;;;6.25;;